sensor_id;sensor_type;location;lat;lon;timestamp;pressure;altitude;pressure_sealevel;temperature;humidity
19811;BME280;10065;49.632;8.346;2022-10-01T00:01:53;100180.66;;;11.64;80.39
19811;BME280;10065;49.632;8.346;2022-10-01T00:04:22;100181.84;;;11.70;80.03
19811;BME280;10065;49.632;8.346;2022-10-01T00:06:51;100179.38;;;11.68;79.82
19811;BME280;10065;49.632;8.346;2022-10-01T00:09:19;100177.50;;;11.61;80.34
19811;BME280;10065;49.632;8.346;2022-10-01T00:11:46;100167.69;;;11.61;80.63
19811;BME280;10065;49.632;8.346;2022-10-01T00:14:14;100165.72;;;11.63;80.05
19811;BME280;10065;49.632;8.346;2022-10-01T00:16:42;100163.56;;;11.59;80.47
19811;BME280;10065;49.632;8.346;2022-10-01T00:19:11;100170.34;;;11.53;80.88
19811;BME280;10065;49.632;8.346;2022-10-01T00:21:39;100153.56;;;11.53;81.28
19811;BME280;10065;49.632;8.346;2022-10-01T00:24:11;100156.06;;;11.54;80.83
19811;BME280;10065;49.632;8.346;2022-10-01T00:26:38;100162.38;;;11.53;81.20
19811;BME280;10065;49.632;8.346;2022-10-01T00:29:11;100158.69;;;11.46;81.64
19811;BME280;10065;49.632;8.346;2022-10-01T00:31:39;100151.09;;;11.43;82.04
19811;BME280;10065;49.632;8.346;2022-10-01T00:34:08;100141.44;;;11.42;82.16
19811;BME280;10065;49.632;8.346;2022-10-01T00:36:38;100134.13;;;11.44;81.96
19811;BME280;10065;49.632;8.346;2022-10-01T00:39:09;100139.44;;;11.44;82.06
19811;BME280;10065;49.632;8.346;2022-10-01T00:41:36;100132.31;;;11.45;82.23
19811;BME280;10065;49.632;8.346;2022-10-01T00:44:26;100131.81;;;11.41;82.73
19811;BME280;10065;49.632;8.346;2022-10-01T00:46:55;100125.53;;;11.42;83.00
19811;BME280;10065;49.632;8.346;2022-10-01T00:49:26;100123.03;;;11.41;83.49
19811;BME280;10065;49.632;8.346;2022-10-01T00:51:59;100131.47;;;11.44;83.22
19811;BME280;10065;49.632;8.346;2022-10-01T00:54:33;100136.13;;;11.42;83.68
19811;BME280;10065;49.632;8.346;2022-10-01T00:57:05;100129.50;;;11.46;83.49
19811;BME280;10065;49.632;8.346;2022-10-01T00:59:34;100128.50;;;11.47;83.52
19811;BME280;10065;49.632;8.346;2022-10-01T01:02:02;100126.53;;;11.49;83.30
19811;BME280;10065;49.632;8.346;2022-10-01T01:04:30;100122.72;;;11.52;83.11
19811;BME280;10065;49.632;8.346;2022-10-01T01:07:00;100117.75;;;11.57;82.89
19811;BME280;10065;49.632;8.346;2022-10-01T01:09:33;100117.75;;;11.57;82.79
19811;BME280;10065;49.632;8.346;2022-10-01T01:12:07;100115.09;;;11.57;83.07
19811;BME280;10065;49.632;8.346;2022-10-01T01:14:41;100111.28;;;11.59;83.10
19811;BME280;10065;49.632;8.346;2022-10-01T01:17:18;100110.47;;;11.59;83.02
19811;BME280;10065;49.632;8.346;2022-10-01T01:20:05;100113.28;;;11.57;83.40
19811;BME280;10065;49.632;8.346;2022-10-01T01:22:43;100120.72;;;11.62;82.96
19811;BME280;10065;49.632;8.346;2022-10-01T01:25:17;100115.94;;;11.65;82.45
19811;BME280;10065;49.632;8.346;2022-10-01T01:27:56;100126.03;;;11.62;82.92
19811;BME280;10065;49.632;8.346;2022-10-01T01:30:25;100114.78;;;11.68;82.40
19811;BME280;10065;49.632;8.346;2022-10-01T01:32:57;100110.31;;;11.68;82.29
19811;BME280;10065;49.632;8.346;2022-10-01T01:35:33;100119.25;;;11.67;82.50
19811;BME280;10065;49.632;8.346;2022-10-01T01:38:07;100101.34;;;11.69;82.47
19811;BME280;10065;49.632;8.346;2022-10-01T01:40:38;100107.97;;;11.74;82.01
19811;BME280;10065;49.632;8.346;2022-10-01T01:43:12;100102.66;;;11.74;81.86
19811;BME280;10065;49.632;8.346;2022-10-01T01:45:45;100099.88;;;11.75;81.65
19811;BME280;10065;49.632;8.346;2022-10-01T01:48:14;100083.78;;;11.77;81.59
19811;BME280;10065;49.632;8.346;2022-10-01T01:50:47;100086.09;;;11.80;81.13
19811;BME280;10065;49.632;8.346;2022-10-01T01:53:17;100084.44;;;11.79;80.73
19811;BME280;10065;49.632;8.346;2022-10-01T01:55:46;100083.09;;;11.75;81.17
19811;BME280;10065;49.632;8.346;2022-10-01T01:58:16;100074.00;;;11.77;81.05
19811;BME280;10065;49.632;8.346;2022-10-01T02:00:45;100071.81;;;11.81;80.89
19811;BME280;10065;49.632;8.346;2022-10-01T02:03:18;100068.16;;;11.82;80.75
19811;BME280;10065;49.632;8.346;2022-10-01T02:05:50;100075.97;;;11.83;80.55
19811;BME280;10065;49.632;8.346;2022-10-01T02:08:32;100064.69;;;11.81;80.90
19811;BME280;10065;49.632;8.346;2022-10-01T02:11:15;100071.50;;;11.84;80.95
19811;BME280;10065;49.632;8.346;2022-10-01T02:13:57;100072.16;;;11.86;80.64
19811;BME280;10065;49.632;8.346;2022-10-01T02:16:31;100073.84;;;11.87;80.59
19811;BME280;10065;49.632;8.346;2022-10-01T02:19:03;100069.50;;;11.86;80.63
19811;BME280;10065;49.632;8.346;2022-10-01T02:21:36;100073.31;;;11.83;80.76
19811;BME280;10065;49.632;8.346;2022-10-01T02:24:09;100061.69;;;11.84;80.66
19811;BME280;10065;49.632;8.346;2022-10-01T02:26:41;100071.50;;;11.84;80.72
19811;BME280;10065;49.632;8.346;2022-10-01T02:29:12;100067.69;;;11.78;81.32
19811;BME280;10065;49.632;8.346;2022-10-01T02:31:44;100068.50;;;11.79;81.48
19811;BME280;10065;49.632;8.346;2022-10-01T02:34:14;100069.16;;;11.89;80.76
19811;BME280;10065;49.632;8.346;2022-10-01T02:36:47;100062.19;;;11.88;80.83
19811;BME280;10065;49.632;8.346;2022-10-01T02:39:16;100058.53;;;11.89;81.04
19811;BME280;10065;49.632;8.346;2022-10-01T02:41:48;100053.22;;;11.89;81.18
19811;BME280;10065;49.632;8.346;2022-10-01T02:44:20;100041.75;;;11.88;81.52
19811;BME280;10065;49.632;8.346;2022-10-01T02:46:53;100042.44;;;11.90;81.79
19811;BME280;10065;49.632;8.346;2022-10-01T02:49:23;100034.97;;;11.86;82.43
19811;BME280;10065;49.632;8.346;2022-10-01T02:52:00;100032.16;;;11.87;82.84
19811;BME280;10065;49.632;8.346;2022-10-01T02:54:36;100035.28;;;11.91;82.84
19811;BME280;10065;49.632;8.346;2022-10-01T02:57:05;100024.50;;;12.00;82.10
19811;BME280;10065;49.632;8.346;2022-10-01T02:59:55;100021.16;;;11.98;82.61
19811;BME280;10065;49.632;8.346;2022-10-01T03:02:25;100012.88;;;12.01;82.42
19811;BME280;10065;49.632;8.346;2022-10-01T03:04:53;100011.03;;;12.02;82.58
19811;BME280;10065;49.632;8.346;2022-10-01T03:07:22;99999.72;;;12.08;82.10
19811;BME280;10065;49.632;8.346;2022-10-01T03:09:49;100004.56;;;12.04;82.32
19811;BME280;10065;49.632;8.346;2022-10-01T03:12:17;100006.72;;;12.09;82.22
19811;BME280;10065;49.632;8.346;2022-10-01T03:14:45;99993.25;;;12.11;81.86
19811;BME280;10065;49.632;8.346;2022-10-01T03:17:15;100005.72;;;12.10;82.14
19811;BME280;10065;49.632;8.346;2022-10-01T03:19:43;100001.69;;;12.14;81.90
19811;BME280;10065;49.632;8.346;2022-10-01T03:22:13;100006.69;;;12.17;81.84
19811;BME280;10065;49.632;8.346;2022-10-01T03:24:41;100006.69;;;12.17;81.78
19811;BME280;10065;49.632;8.346;2022-10-01T03:27:08;99998.72;;;12.17;82.02
19811;BME280;10065;49.632;8.346;2022-10-01T03:29:36;99997.69;;;12.26;81.78
19811;BME280;10065;49.632;8.346;2022-10-01T03:32:03;100003.31;;;12.31;81.28
19811;BME280;10065;49.632;8.346;2022-10-01T03:34:32;99995.69;;;12.28;81.16
19811;BME280;10065;49.632;8.346;2022-10-01T03:37:00;99990.38;;;12.28;81.17
19811;BME280;10065;49.632;8.346;2022-10-01T03:39:28;99988.88;;;12.34;80.68
19811;BME280;10065;49.632;8.346;2022-10-01T03:41:55;99995.00;;;12.34;80.26
19811;BME280;10065;49.632;8.346;2022-10-01T03:44:23;99992.72;;;12.23;80.89
19811;BME280;10065;49.632;8.346;2022-10-01T03:46:51;99979.63;;;12.22;80.84
19811;BME280;10065;49.632;8.346;2022-10-01T03:49:19;99990.38;;;12.28;80.21
19811;BME280;10065;49.632;8.346;2022-10-01T03:51:48;99990.72;;;12.25;80.88
19811;BME280;10065;49.632;8.346;2022-10-01T03:54:16;99985.72;;;12.30;80.44
19811;BME280;10065;49.632;8.346;2022-10-01T03:56:45;99985.91;;;12.29;80.50
19811;BME280;10065;49.632;8.346;2022-10-01T03:59:14;99981.41;;;12.29;80.88
19811;BME280;10065;49.632;8.346;2022-10-01T04:01:41;99981.06;;;12.24;81.59
19811;BME280;10065;49.632;8.346;2022-10-01T04:04:09;99983.56;;;12.26;81.73
19811;BME280;10065;49.632;8.346;2022-10-01T04:06:37;99980.09;;;12.17;82.74
19811;BME280;10065;49.632;8.346;2022-10-01T04:09:06;99978.44;;;12.16;83.32
19811;BME280;10065;49.632;8.346;2022-10-01T04:11:34;99980.78;;;12.19;83.66
19811;BME280;10065;49.632;8.346;2022-10-01T04:14:02;99987.28;;;12.09;84.91
19811;BME280;10065;49.632;8.346;2022-10-01T04:16:31;99991.44;;;12.11;85.35
19811;BME280;10065;49.632;8.346;2022-10-01T04:19:01;99992.41;;;12.10;85.70
19811;BME280;10065;49.632;8.346;2022-10-01T04:21:29;99993.41;;;12.09;86.21
19811;BME280;10065;49.632;8.346;2022-10-01T04:23:58;99985.44;;;12.09;86.59
19811;BME280;10065;49.632;8.346;2022-10-01T04:26:27;99990.09;;;12.07;86.91
19811;BME280;10065;49.632;8.346;2022-10-01T04:28:55;99980.47;;;12.06;87.29
19811;BME280;10065;49.632;8.346;2022-10-01T04:31:23;99984.94;;;12.05;87.57
19811;BME280;10065;49.632;8.346;2022-10-01T04:33:51;99974.66;;;12.02;87.99
19811;BME280;10065;49.632;8.346;2022-10-01T04:36:19;99972.50;;;11.98;88.54
19811;BME280;10065;49.632;8.346;2022-10-01T04:38:49;99974.16;;;11.99;88.60
19811;BME280;10065;49.632;8.346;2022-10-01T04:41:17;99970.84;;;11.97;88.83
19811;BME280;10065;49.632;8.346;2022-10-01T04:43:47;99964.22;;;11.93;89.20
19811;BME280;10065;49.632;8.346;2022-10-01T04:46:15;99960.44;;;11.87;90.32
19811;BME280;10065;49.632;8.346;2022-10-01T04:48:43;99963.72;;;11.89;90.19
19811;BME280;10065;49.632;8.346;2022-10-01T04:51:10;99960.06;;;11.90;90.43
19811;BME280;10065;49.632;8.346;2022-10-01T04:53:38;99957.78;;;11.87;90.31
19811;BME280;10065;49.632;8.346;2022-10-01T04:56:06;99964.06;;;11.86;90.58
19811;BME280;10065;49.632;8.346;2022-10-01T04:58:33;99959.22;;;11.90;90.65
19811;BME280;10065;49.632;8.346;2022-10-01T05:01:02;99961.22;;;11.88;90.51
19811;BME280;10065;49.632;8.346;2022-10-01T05:03:30;99957.25;;;11.84;91.22
19811;BME280;10065;49.632;8.346;2022-10-01T05:05:58;99956.91;;;11.79;91.53
19811;BME280;10065;49.632;8.346;2022-10-01T05:08:26;99946.50;;;11.77;92.07
19811;BME280;10065;49.632;8.346;2022-10-01T05:10:54;99941.34;;;11.76;92.40
19811;BME280;10065;49.632;8.346;2022-10-01T05:13:21;99932.22;;;11.78;92.28
19811;BME280;10065;49.632;8.346;2022-10-01T05:15:49;99937.84;;;11.83;92.17
19811;BME280;10065;49.632;8.346;2022-10-01T05:18:20;99921.22;;;11.81;92.29
19811;BME280;10065;49.632;8.346;2022-10-01T05:20:48;99907.94;;;11.81;92.35
19811;BME280;10065;49.632;8.346;2022-10-01T05:23:15;99914.41;;;11.79;92.56
19811;BME280;10065;49.632;8.346;2022-10-01T05:25:43;99907.13;;;11.81;92.74
19811;BME280;10065;49.632;8.346;2022-10-01T05:28:12;99906.44;;;11.79;92.55
19811;BME280;10065;49.632;8.346;2022-10-01T05:30:47;99900.16;;;11.80;92.51
19811;BME280;10065;49.632;8.346;2022-10-01T05:33:15;99891.84;;;11.83;92.92
19811;BME280;10065;49.632;8.346;2022-10-01T05:35:44;99892.00;;;11.81;92.79
19811;BME280;10065;49.632;8.346;2022-10-01T05:38:12;99890.34;;;11.80;93.29
19811;BME280;10065;49.632;8.346;2022-10-01T05:40:43;99911.09;;;11.85;92.77
19811;BME280;10065;49.632;8.346;2022-10-01T05:43:12;99908.13;;;11.80;92.93
19811;BME280;10065;49.632;8.346;2022-10-01T05:45:40;99904.13;;;11.84;93.00
19811;BME280;10065;49.632;8.346;2022-10-01T05:48:08;99909.78;;;11.81;92.87
19811;BME280;10065;49.632;8.346;2022-10-01T05:50:37;99913.13;;;11.75;93.43
19811;BME280;10065;49.632;8.346;2022-10-01T05:53:07;99896.03;;;11.77;93.70
19811;BME280;10065;49.632;8.346;2022-10-01T05:55:36;99886.22;;;11.78;93.51
19811;BME280;10065;49.632;8.346;2022-10-01T05:58:05;99894.38;;;11.76;94.05
19811;BME280;10065;49.632;8.346;2022-10-01T06:00:33;99902.16;;;11.78;93.88
19811;BME280;10065;49.632;8.346;2022-10-01T06:03:02;99912.94;;;11.84;93.51
19811;BME280;10065;49.632;8.346;2022-10-01T06:05:32;99913.94;;;11.83;93.46
19811;BME280;10065;49.632;8.346;2022-10-01T06:08:00;99895.34;;;11.83;93.29
19811;BME280;10065;49.632;8.346;2022-10-01T06:10:29;99888.69;;;11.79;93.33
19811;BME280;10065;49.632;8.346;2022-10-01T06:12:58;99890.69;;;11.85;92.85
19811;BME280;10065;49.632;8.346;2022-10-01T06:15:27;99883.56;;;11.86;92.98
19811;BME280;10065;49.632;8.346;2022-10-01T06:17:55;99890.53;;;11.87;92.92
19811;BME280;10065;49.632;8.346;2022-10-01T06:20:23;99889.69;;;11.86;92.94
19811;BME280;10065;49.632;8.346;2022-10-01T06:22:55;99901.63;;;11.90;92.98
19811;BME280;10065;49.632;8.346;2022-10-01T06:25:23;99892.97;;;11.88;93.29
19811;BME280;10065;49.632;8.346;2022-10-01T06:27:58;99886.84;;;11.88;93.31
19811;BME280;10065;49.632;8.346;2022-10-01T06:30:27;99889.50;;;11.88;93.12
19811;BME280;10065;49.632;8.346;2022-10-01T06:32:58;99887.88;;;11.87;93.35
19811;BME280;10065;49.632;8.346;2022-10-01T06:35:27;99892.69;;;11.83;94.45
19811;BME280;10065;49.632;8.346;2022-10-01T06:37:55;99895.34;;;11.83;94.04
19811;BME280;10065;49.632;8.346;2022-10-01T06:40:22;99887.66;;;11.88;93.55
19811;BME280;10065;49.632;8.346;2022-10-01T06:42:50;99891.00;;;11.90;94.01
19811;BME280;10065;49.632;8.346;2022-10-01T06:45:23;99882.69;;;11.93;93.75
19811;BME280;10065;49.632;8.346;2022-10-01T06:47:55;99893.47;;;11.92;94.51
19811;BME280;10065;49.632;8.346;2022-10-01T06:50:24;99887.16;;;11.93;94.21
19811;BME280;10065;49.632;8.346;2022-10-01T06:52:51;99889.16;;;11.91;94.65
19811;BME280;10065;49.632;8.346;2022-10-01T06:55:20;99883.53;;;11.94;94.78
19811;BME280;10065;49.632;8.346;2022-10-01T06:57:52;99881.16;;;11.99;94.08
19811;BME280;10065;49.632;8.346;2022-10-01T07:00:20;99872.22;;;11.92;94.21
19811;BME280;10065;49.632;8.346;2022-10-01T07:02:50;99886.50;;;11.91;95.04
19811;BME280;10065;49.632;8.346;2022-10-01T07:05:17;99885.19;;;11.95;95.36
19811;BME280;10065;49.632;8.346;2022-10-01T07:07:45;99880.88;;;11.94;95.48
19811;BME280;10065;49.632;8.346;2022-10-01T07:10:15;99875.53;;;12.02;95.00
19811;BME280;10065;49.632;8.346;2022-10-01T07:12:42;99875.84;;;11.99;94.84
19811;BME280;10065;49.632;8.346;2022-10-01T07:15:11;99872.72;;;11.95;95.72
19811;BME280;10065;49.632;8.346;2022-10-01T07:17:42;99858.25;;;11.98;96.18
19811;BME280;10065;49.632;8.346;2022-10-01T07:20:12;99856.59;;;11.97;96.01
19811;BME280;10065;49.632;8.346;2022-10-01T07:22:43;99863.56;;;11.98;96.67
19811;BME280;10065;49.632;8.346;2022-10-01T07:25:11;99872.38;;;11.98;96.36
19811;BME280;10065;49.632;8.346;2022-10-01T07:27:39;99888.13;;;12.00;96.67
19811;BME280;10065;49.632;8.346;2022-10-01T07:30:08;99890.78;;;12.00;96.57
19811;BME280;10065;49.632;8.346;2022-10-01T07:32:36;99882.16;;;11.98;96.97
19811;BME280;10065;49.632;8.346;2022-10-01T07:35:04;99880.16;;;12.00;97.17
19811;BME280;10065;49.632;8.346;2022-10-01T07:37:33;99876.19;;;12.04;97.43
19811;BME280;10065;49.632;8.346;2022-10-01T07:40:01;99878.84;;;12.04;97.43
19811;BME280;10065;49.632;8.346;2022-10-01T07:42:33;99883.78;;;12.07;97.16
19811;BME280;10065;49.632;8.346;2022-10-01T07:45:00;99877.47;;;12.08;97.35
19811;BME280;10065;49.632;8.346;2022-10-01T07:47:29;99885.63;;;12.06;97.57
19811;BME280;10065;49.632;8.346;2022-10-01T07:49:57;99883.13;;;12.05;98.15
19811;BME280;10065;49.632;8.346;2022-10-01T07:52:25;99885.63;;;12.06;98.18
19811;BME280;10065;49.632;8.346;2022-10-01T07:54:54;99879.69;;;12.04;98.28
19811;BME280;10065;49.632;8.346;2022-10-01T07:57:21;99884.81;;;11.98;99.32
19811;BME280;10065;49.632;8.346;2022-10-01T07:59:49;99878.19;;;12.02;99.56
19811;BME280;10065;49.632;8.346;2022-10-01T08:02:21;99884.16;;;12.04;99.95
19811;BME280;10065;49.632;8.346;2022-10-01T08:04:49;99879.81;;;12.11;99.10
19811;BME280;10065;49.632;8.346;2022-10-01T08:07:34;99881.13;;;12.07;99.53
19811;BME280;10065;49.632;8.346;2022-10-01T08:10:04;99870.88;;;12.04;100.00
19811;BME280;10065;49.632;8.346;2022-10-01T08:12:32;99871.50;;;12.06;100.00
19811;BME280;10065;49.632;8.346;2022-10-01T08:14:59;99873.81;;;12.09;100.00
19811;BME280;10065;49.632;8.346;2022-10-01T08:17:28;99870.84;;;12.12;100.00
19811;BME280;10065;49.632;8.346;2022-10-01T08:19:56;99869.00;;;12.13;100.00
19811;BME280;10065;49.632;8.346;2022-10-01T08:22:23;99859.34;;;12.20;99.91
19811;BME280;10065;49.632;8.346;2022-10-01T08:24:51;99838.78;;;12.14;100.00
19811;BME280;10065;49.632;8.346;2022-10-01T08:27:22;99822.13;;;12.20;100.00
19811;BME280;10065;49.632;8.346;2022-10-01T08:29:50;99837.25;;;12.19;99.57
19811;BME280;10065;49.632;8.346;2022-10-01T08:32:18;99876.28;;;12.19;100.00
19811;BME280;10065;49.632;8.346;2022-10-01T08:34:46;99875.28;;;12.20;100.00
19811;BME280;10065;49.632;8.346;2022-10-01T08:37:24;99882.59;;;12.18;100.00
19811;BME280;10065;49.632;8.346;2022-10-01T08:39:53;99893.53;;;12.23;100.00
19811;BME280;10065;49.632;8.346;2022-10-01T08:42:38;99891.38;;;12.26;100.00
19811;BME280;10065;49.632;8.346;2022-10-01T08:45:12;99914.28;;;12.27;100.00
19811;BME280;10065;49.632;8.346;2022-10-01T08:47:44;99903.13;;;12.32;100.00
19811;BME280;10065;49.632;8.346;2022-10-01T08:50:26;99883.69;;;12.31;100.00
19811;BME280;10065;49.632;8.346;2022-10-01T08:52:58;99881.03;;;12.31;100.00
19811;BME280;10065;49.632;8.346;2022-10-01T08:55:29;99867.88;;;12.38;100.00
19811;BME280;10065;49.632;8.346;2022-10-01T08:58:05;99867.19;;;12.44;100.00
19811;BME280;10065;49.632;8.346;2022-10-01T09:00:38;99857.53;;;12.43;99.99
19811;BME280;10065;49.632;8.346;2022-10-01T09:03:10;99864.00;;;12.49;100.00
19811;BME280;10065;49.632;8.346;2022-10-01T09:05:52;99869.78;;;12.52;99.62
19811;BME280;10065;49.632;8.346;2022-10-01T09:08:28;99896.22;;;12.54;99.62
19811;BME280;10065;49.632;8.346;2022-10-01T09:11:15;99885.88;;;12.59;99.21
19811;BME280;10065;49.632;8.346;2022-10-01T09:16:47;99907.59;;;12.70;98.34
19811;BME280;10065;49.632;8.346;2022-10-01T09:19:36;99898.78;;;12.70;98.25
19811;BME280;10065;49.632;8.346;2022-10-01T09:22:19;99899.59;;;12.70;98.72
19811;BME280;10065;49.632;8.346;2022-10-01T09:24:58;99904.75;;;12.72;99.42
19811;BME280;10065;49.632;8.346;2022-10-01T09:27:27;99897.44;;;12.74;99.66
19811;BME280;10065;49.632;8.346;2022-10-01T09:29:58;99891.41;;;12.80;99.42
19811;BME280;10065;49.632;8.346;2022-10-01T09:32:31;99891.06;;;12.83;99.67
19811;BME280;10065;49.632;8.346;2022-10-01T09:35:03;99888.03;;;12.86;99.80
19811;BME280;10065;49.632;8.346;2022-10-01T09:37:40;99900.81;;;12.91;99.13
19811;BME280;10065;49.632;8.346;2022-10-01T09:40:13;99913.69;;;13.02;98.24
19811;BME280;10065;49.632;8.346;2022-10-01T09:42:45;99900.38;;;13.02;97.57
19811;BME280;10065;49.632;8.346;2022-10-01T09:45:16;99893.38;;;13.09;96.45
19811;BME280;10065;49.632;8.346;2022-10-01T09:47:47;99902.81;;;13.11;97.54
19811;BME280;10065;49.632;8.346;2022-10-01T09:50:19;99901.16;;;13.18;96.67
19811;BME280;10065;49.632;8.346;2022-10-01T09:52:49;99900.59;;;13.23;96.23
19811;BME280;10065;49.632;8.346;2022-10-01T09:55:26;99902.84;;;13.34;95.81
19811;BME280;10065;49.632;8.346;2022-10-01T09:58:00;99903.50;;;13.36;95.38
19811;BME280;10065;49.632;8.346;2022-10-01T10:00:31;99908.44;;;13.39;95.67
19811;BME280;10065;49.632;8.346;2022-10-01T10:02:59;99893.59;;;13.45;95.03
19811;BME280;10065;49.632;8.346;2022-10-01T10:05:28;99895.88;;;13.48;95.55
19811;BME280;10065;49.632;8.346;2022-10-01T10:07:57;99908.50;;;13.54;95.50
19811;BME280;10065;49.632;8.346;2022-10-01T10:10:28;99911.09;;;13.62;94.71
19811;BME280;10065;49.632;8.346;2022-10-01T10:13:03;99916.59;;;13.61;94.42
19811;BME280;10065;49.632;8.346;2022-10-01T10:15:43;99921.34;;;13.65;94.06
19811;BME280;10065;49.632;8.346;2022-10-01T10:18:21;99929.34;;;13.65;94.34
19811;BME280;10065;49.632;8.346;2022-10-01T10:20:54;99927.53;;;13.66;94.08
19811;BME280;10065;49.632;8.346;2022-10-01T10:23:23;99930.00;;;13.67;94.21
19811;BME280;10065;49.632;8.346;2022-10-01T10:25:56;99935.00;;;13.70;94.36
19811;BME280;10065;49.632;8.346;2022-10-01T10:28:26;99941.25;;;13.77;93.57
19811;BME280;10065;49.632;8.346;2022-10-01T10:30:56;99934.16;;;13.70;94.00
19811;BME280;10065;49.632;8.346;2022-10-01T10:33:24;99935.00;;;13.70;94.63
19811;BME280;10065;49.632;8.346;2022-10-01T10:35:58;99930.50;;;13.71;94.69
19811;BME280;10065;49.632;8.346;2022-10-01T10:38:29;99937.28;;;13.73;94.75
19811;BME280;10065;49.632;8.346;2022-10-01T10:40:57;99928.19;;;13.82;94.54
19811;BME280;10065;49.632;8.346;2022-10-01T10:43:27;99920.50;;;13.87;93.84
19811;BME280;10065;49.632;8.346;2022-10-01T10:45:57;99927.75;;;13.93;94.17
19811;BME280;10065;49.632;8.346;2022-10-01T10:48:28;99928.00;;;13.99;93.34
19811;BME280;10065;49.632;8.346;2022-10-01T10:51:00;99935.38;;;13.97;93.32
19811;BME280;10065;49.632;8.346;2022-10-01T10:53:37;99937.50;;;14.01;93.07
19811;BME280;10065;49.632;8.346;2022-10-01T10:56:16;99937.41;;;13.94;92.91
19811;BME280;10065;49.632;8.346;2022-10-01T10:58:45;99928.97;;;14.06;92.27
19811;BME280;10065;49.632;8.346;2022-10-01T11:01:17;99938.97;;;14.04;92.36
19811;BME280;10065;49.632;8.346;2022-10-01T11:03:50;99943.00;;;14.00;92.98
19811;BME280;10065;49.632;8.346;2022-10-01T11:06:21;99950.81;;;14.01;92.83
19811;BME280;10065;49.632;8.346;2022-10-01T11:08:57;99952.66;;;14.01;93.08
19811;BME280;10065;49.632;8.346;2022-10-01T11:11:44;99962.47;;;14.00;93.12
19811;BME280;10065;49.632;8.346;2022-10-01T11:14:25;99955.31;;;14.01;93.38
19811;BME280;10065;49.632;8.346;2022-10-01T11:17:06;99962.03;;;13.97;93.58
19811;BME280;10065;49.632;8.346;2022-10-01T11:19:46;99956.63;;;14.05;93.07
19811;BME280;10065;49.632;8.346;2022-10-01T11:22:32;99963.31;;;14.01;94.00
19811;BME280;10065;49.632;8.346;2022-10-01T11:25:18;99969.78;;;14.06;93.98
19811;BME280;10065;49.632;8.346;2022-10-01T11:27:56;99960.94;;;14.06;93.65
19811;BME280;10065;49.632;8.346;2022-10-01T11:30:33;99953.50;;;14.16;92.56
19811;BME280;10065;49.632;8.346;2022-10-01T11:33:11;99952.03;;;14.13;92.40
19811;BME280;10065;49.632;8.346;2022-10-01T11:35:46;99954.03;;;14.11;92.99
19811;BME280;10065;49.632;8.346;2022-10-01T11:38:29;99953.31;;;14.17;92.31
19811;BME280;10065;49.632;8.346;2022-10-01T11:41:12;99952.47;;;14.17;92.31
19811;BME280;10065;49.632;8.346;2022-10-01T11:43:43;99949.28;;;14.21;92.53
19811;BME280;10065;49.632;8.346;2022-10-01T11:46:18;99955.88;;;14.25;92.25
19811;BME280;10065;49.632;8.346;2022-10-01T11:48:51;99963.13;;;14.17;93.05
19811;BME280;10065;49.632;8.346;2022-10-01T11:51:26;99975.75;;;14.23;92.84
19811;BME280;10065;49.632;8.346;2022-10-01T11:54:00;99971.44;;;14.22;92.99
19811;BME280;10065;49.632;8.346;2022-10-01T11:56:34;99982.75;;;14.24;92.94
19811;BME280;10065;49.632;8.346;2022-10-01T11:59:25;99991.09;;;14.21;93.65
19811;BME280;10065;49.632;8.346;2022-10-01T12:02:02;99985.41;;;14.24;93.25
19811;BME280;10065;49.632;8.346;2022-10-01T12:04:38;99991.38;;;14.26;93.41
19811;BME280;10065;49.632;8.346;2022-10-01T12:07:11;99995.03;;;14.25;93.27
19811;BME280;10065;49.632;8.346;2022-10-01T12:09:47;99998.66;;;14.32;92.80
19811;BME280;10065;49.632;8.346;2022-10-01T12:12:21;99992.84;;;14.28;92.35
19811;BME280;10065;49.632;8.346;2022-10-01T12:14:53;99994.50;;;14.29;92.89
19811;BME280;10065;49.632;8.346;2022-10-01T12:17:30;99989.00;;;14.31;92.76
19811;BME280;10065;49.632;8.346;2022-10-01T12:20:03;99997.91;;;14.38;93.13
19811;BME280;10065;49.632;8.346;2022-10-01T12:22:37;99997.91;;;14.38;93.22
19811;BME280;10065;49.632;8.346;2022-10-01T12:25:10;99987.94;;;14.40;92.98
19811;BME280;10065;49.632;8.346;2022-10-01T12:27:44;99991.25;;;14.42;93.71
19811;BME280;10065;49.632;8.346;2022-10-01T12:30:17;99984.78;;;14.51;93.49
19811;BME280;10065;49.632;8.346;2022-10-01T12:33:07;99981.66;;;14.48;93.75
19811;BME280;10065;49.632;8.346;2022-10-01T12:35:51;99971.53;;;14.43;94.46
19811;BME280;10065;49.632;8.346;2022-10-01T12:38:31;99976.25;;;14.41;94.88
19811;BME280;10065;49.632;8.346;2022-10-01T12:41:08;99994.72;;;14.43;95.20
19811;BME280;10065;49.632;8.346;2022-10-01T12:44:02;99987.84;;;14.48;94.78
19811;BME280;10065;49.632;8.346;2022-10-01T12:46:38;99996.25;;;14.37;95.83
19811;BME280;10065;49.632;8.346;2022-10-01T12:49:16;99993.25;;;14.40;95.96
19811;BME280;10065;49.632;8.346;2022-10-01T12:51:54;99990.22;;;14.43;96.51
19811;BME280;10065;49.632;8.346;2022-10-01T12:54:45;99989.66;;;14.48;97.06
19811;BME280;10065;49.632;8.346;2022-10-01T12:57:26;99982.09;;;14.51;97.50
19811;BME280;10065;49.632;8.346;2022-10-01T13:00:04;99996.09;;;14.53;96.63
19811;BME280;10065;49.632;8.346;2022-10-01T13:02:56;99990.75;;;14.68;95.72
19811;BME280;10065;49.632;8.346;2022-10-01T13:05:37;99989.84;;;14.76;95.52
19811;BME280;10065;49.632;8.346;2022-10-01T13:08:26;99995.97;;;14.91;94.01
19811;BME280;10065;49.632;8.346;2022-10-01T13:11:02;99996.84;;;14.98;92.12
19811;BME280;10065;49.632;8.346;2022-10-01T13:13:32;99996.56;;;15.07;92.64
19811;BME280;10065;49.632;8.346;2022-10-01T13:16:05;99993.34;;;15.12;91.21
19811;BME280;10065;49.632;8.346;2022-10-01T13:18:49;100002.88;;;15.21;91.06
19811;BME280;10065;49.632;8.346;2022-10-01T13:21:27;99994.13;;;15.27;91.12
19811;BME280;10065;49.632;8.346;2022-10-01T13:24:03;99993.47;;;15.25;89.27
19811;BME280;10065;49.632;8.346;2022-10-01T13:26:41;99999.06;;;15.30;90.07